Time;durP1;ratioP1;P1;durP2;ratioP2;P2;SDS_P1;SDS_P2;PMS_P1;PMS_P2;Temp;Humidity;BMP_temperature;BMP_pressure;BME280_temperature;BME280_humidity;BME280_pressure;Samples;Min_cycle;Max_cycle;Signal;HPM_P1;HPM_P2
2022/07/09 00:01:15;;;;;;;6.10;5.50;;;;;;;;;;5025638;28;20039;-72
2022/07/09 00:03:40;;;;;;;5.80;5.30;;;;;;;;;;5029977;28;20100;-72
2022/07/09 00:06:05;;;;;;;6.00;5.50;;;;;;;;;;5039654;28;20089;-73
2022/07/09 00:08:31;;;;;;;6.45;5.68;;;;;;;;;;5037861;28;20029;-73
2022/07/09 00:10:56;;;;;;;5.97;5.45;;;;;;;;;;5040159;28;20127;-75
2022/07/09 00:13:21;;;;;;;7.25;5.70;;;;;;;;;;5036987;28;20021;-78
2022/07/09 00:15:47;;;;;;;6.57;5.70;;;;;;;;;;5026652;28;20025;-77
2022/07/09 00:18:12;;;;;;;12.10;5.95;;;;;;;;;;5026119;28;20090;-71
2022/07/09 00:20:38;;;;;;;5.60;5.20;;;;;;;;;;5026381;28;20439;-72
2022/07/09 00:23:03;;;;;;;6.72;5.95;;;;;;;;;;5039744;28;20172;-72
2022/07/09 00:25:28;;;;;;;6.28;5.78;;;;;;;;;;5034545;28;20048;-74
2022/07/09 00:27:54;;;;;;;5.72;5.22;;;;;;;;;;5024293;28;20024;-74
2022/07/09 00:30:19;;;;;;;6.65;5.57;;;;;;;;;;5027580;28;20049;-75
2022/07/09 00:32:44;;;;;;;6.18;5.68;;;;;;;;;;5031907;28;20029;-72
2022/07/09 00:35:10;;;;;;;5.90;5.50;;;;;;;;;;5041992;28;20029;-73
2022/07/09 00:37:35;;;;;;;6.63;6.07;;;;;;;;;;5034699;28;20033;-76
2022/07/09 00:40:00;;;;;;;6.90;6.20;;;;;;;;;;5037512;28;20079;-73
2022/07/09 00:42:26;;;;;;;7.07;6.38;;;;;;;;;;5039494;28;20143;-72
2022/07/09 00:44:51;;;;;;;5.75;5.35;;;;;;;;;;5043479;28;20021;-73
2022/07/09 00:47:17;;;;;;;5.97;5.50;;;;;;;;;;5033401;28;20017;-78
2022/07/09 00:49:42;;;;;;;6.20;5.70;;;;;;;;;;5040753;28;20028;-79
2022/07/09 00:52:09;;;;;;;8.48;6.10;;;;;;;;;;5043040;28;20176;-77
2022/07/09 00:54:35;;;;;;;6.80;6.30;;;;;;;;;;5043880;28;20108;-78
2022/07/09 00:57:01;;;;;;;6.15;5.65;;;;;;;;;;5043417;28;20517;-77
2022/07/09 00:59:27;;;;;;;6.22;5.63;;;;;;;;;;5041039;28;20021;-74
2022/07/09 01:01:52;;;;;;;6.57;5.97;;;;;;;;;;5028509;28;20757;-79
2022/07/09 01:04:18;;;;;;;6.10;5.63;;;;;;;;;;5031229;28;20444;-74
2022/07/09 01:06:44;;;;;;;6.47;5.97;;;;;;;;;;5043309;28;20433;-73
2022/07/09 01:09:09;;;;;;;7.45;6.10;;;;;;;;;;5043266;28;20033;-74
2022/07/09 01:11:35;;;;;;;6.43;5.93;;;;;;;;;;5043006;28;20029;-74
2022/07/09 01:14:01;;;;;;;8.45;6.10;;;;;;;;;;5044052;28;20036;-75
2022/07/09 01:16:37;;;;;;;5.53;4.93;;;;;;;;;;5043519;28;20086;-72
2022/07/09 01:19:02;;;;;;;5.30;4.80;;;;;;;;;;5031221;28;20029;-75
2022/07/09 01:21:28;;;;;;;5.63;4.68;;;;;;;;;;5029290;28;20033;-76
2022/07/09 01:23:53;;;;;;;5.03;4.30;;;;;;;;;;5033364;28;20025;-74
2022/07/09 01:26:21;;;;;;;5.05;4.57;;;;;;;;;;5043872;28;20466;-74
2022/07/09 01:28:47;;;;;;;5.00;4.68;;;;;;;;;;5043424;28;20064;-77
2022/07/09 01:31:13;;;;;;;4.90;4.50;;;;;;;;;;5043305;28;20060;-77
2022/07/09 01:33:38;;;;;;;6.75;5.00;;;;;;;;;;5031604;28;20790;-75
2022/07/09 01:36:04;;;;;;;6.32;5.63;;;;;;;;;;5042348;28;20040;-73
2022/07/09 01:38:29;;;;;;;6.47;5.80;;;;;;;;;;5031546;28;20021;-76
2022/07/09 01:40:54;;;;;;;6.40;5.80;;;;;;;;;;5043463;28;20033;-76
2022/07/09 01:43:20;;;;;;;7.15;6.15;;;;;;;;;;5043211;28;20075;-74
2022/07/09 01:45:45;;;;;;;8.07;5.85;;;;;;;;;;5042113;28;20454;-75
2022/07/09 01:48:10;;;;;;;6.65;6.05;;;;;;;;;;5042540;28;20100;-74
2022/07/09 01:50:36;;;;;;;6.30;5.70;;;;;;;;;;5043413;28;20090;-75
2022/07/09 01:53:01;;;;;;;5.97;5.47;;;;;;;;;;5031298;28;20113;-74
2022/07/09 01:55:26;;;;;;;7.05;6.45;;;;;;;;;;5037004;28;20025;-74
2022/07/09 01:57:52;;;;;;;7.00;5.32;;;;;;;;;;5034264;28;20083;-74
2022/07/09 02:00:19;;;;;;;6.80;5.53;;;;;;;;;;5041513;28;20024;-74
2022/07/09 02:02:44;;;;;;;6.10;5.55;;;;;;;;;;5040954;28;20025;-75
2022/07/09 02:05:09;;;;;;;6.75;6.10;;;;;;;;;;5040918;28;20025;-74
2022/07/09 02:07:35;;;;;;;8.80;5.95;;;;;;;;;;5028886;28;20115;-75
2022/07/09 02:10:01;;;;;;;7.35;6.75;;;;;;;;;;5028830;28;20113;-74
2022/07/09 02:12:26;;;;;;;7.18;6.57;;;;;;;;;;5043775;28;20111;-74
2022/07/09 02:14:51;;;;;;;7.40;6.70;;;;;;;;;;5042436;28;20104;-74
2022/07/09 02:17:17;;;;;;;7.32;6.30;;;;;;;;;;5031217;28;20045;-74
2022/07/09 02:19:42;;;;;;;7.32;6.60;;;;;;;;;;5041270;28;20044;-74
2022/07/09 02:22:07;;;;;;;7.43;6.85;;;;;;;;;;5040198;28;20056;-75
2022/07/09 02:24:33;;;;;;;6.60;6.00;;;;;;;;;;5031177;28;20025;-74
2022/07/09 02:26:58;;;;;;;8.70;7.72;;;;;;;;;;5038934;28;20348;-74
2022/07/09 02:29:23;;;;;;;8.85;8.13;;;;;;;;;;5040619;28;20029;-74
2022/07/09 02:31:49;;;;;;;8.23;7.53;;;;;;;;;;5041557;28;20060;-74
2022/07/09 02:34:14;;;;;;;8.07;7.38;;;;;;;;;;5041393;28;20033;-75
2022/07/09 02:36:39;;;;;;;7.68;6.63;;;;;;;;;;5041748;28;20021;-75
2022/07/09 02:39:05;;;;;;;7.25;6.57;;;;;;;;;;5031599;28;20017;-77
2022/07/09 02:41:30;;;;;;;7.35;6.65;;;;;;;;;;5028167;28;20423;-76
2022/07/09 02:43:56;;;;;;;7.07;6.10;;;;;;;;;;5032589;28;20025;-74
2022/07/09 02:46:21;;;;;;;6.90;6.38;;;;;;;;;;5030435;28;20479;-76
2022/07/09 02:48:46;;;;;;;7.20;6.53;;;;;;;;;;5041396;28;20029;-79
2022/07/09 02:51:12;;;;;;;7.45;6.85;;;;;;;;;;5040241;28;20060;-75
2022/07/09 02:53:37;;;;;;;7.32;6.57;;;;;;;;;;5041706;28;20056;-76
2022/07/09 02:56:03;;;;;;;7.88;6.90;;;;;;;;;;5028699;28;20028;-75
2022/07/09 02:58:28;;;;;;;7.82;6.97;;;;;;;;;;5040455;28;20471;-80
2022/07/09 03:00:53;;;;;;;8.32;7.53;;;;;;;;;;5041414;28;20032;-76
2022/07/09 03:03:18;;;;;;;7.13;6.53;;;;;;;;;;5040993;28;20044;-75
2022/07/09 03:05:44;;;;;;;7.03;6.43;;;;;;;;;;5041596;28;20020;-75
2022/07/09 03:08:09;;;;;;;6.65;6.13;;;;;;;;;;5041356;28;20032;-75
2022/07/09 03:10:34;;;;;;;6.07;5.57;;;;;;;;;;5041539;28;20454;-75
2022/07/09 03:13:00;;;;;;;5.38;4.88;;;;;;;;;;5035251;28;20360;-79
2022/07/09 03:15:25;;;;;;;8.93;5.25;;;;;;;;;;5025760;28;20037;-78
2022/07/09 03:17:51;;;;;;;5.30;4.57;;;;;;;;;;5026127;28;20087;-74
2022/07/09 03:20:16;;;;;;;5.28;4.88;;;;;;;;;;5039898;28;20036;-78
2022/07/09 03:22:41;;;;;;;6.32;5.50;;;;;;;;;;5036410;28;20037;-75
2022/07/09 03:25:07;;;;;;;6.57;5.95;;;;;;;;;;5028929;28;20027;-74
2022/07/09 03:27:33;;;;;;;5.82;5.43;;;;;;;;;;5025119;28;20444;-76
2022/07/09 03:29:59;;;;;;;6.40;5.80;;;;;;;;;;5026812;28;20040;-76
2022/07/09 03:32:24;;;;;;;8.77;5.75;;;;;;;;;;5038582;28;20029;-76
2022/07/09 03:34:52;;;;;;;12.45;11.50;;;;;;;;;;5040897;28;20017;-77
2022/07/09 03:37:17;;;;;;;24.17;22.45;;;;;;;;;;5041227;28;20032;-78
2022/07/09 03:39:42;;;;;;;35.85;33.15;;;;;;;;;;5038939;28;20044;-76
2022/07/09 03:42:08;;;;;;;29.25;26.85;;;;;;;;;;5028684;28;20021;-79
2022/07/09 03:44:33;;;;;;;13.43;12.20;;;;;;;;;;5037416;28;20116;-76
2022/07/09 03:46:59;;;;;;;9.35;8.55;;;;;;;;;;5029174;28;20082;-76
2022/07/09 03:49:24;;;;;;;8.77;7.97;;;;;;;;;;5040099;28;20051;-74
2022/07/09 03:51:50;;;;;;;8.07;7.38;;;;;;;;;;5039184;28;20140;-76
2022/07/09 03:54:15;;;;;;;7.18;6.68;;;;;;;;;;5038879;28;20130;-77
2022/07/09 03:56:41;;;;;;;7.70;7.00;;;;;;;;;;5040493;28;21286;-77
2022/07/09 03:59:06;;;;;;;7.95;7.13;;;;;;;;;;5025480;28;20037;-75
2022/07/09 04:01:32;;;;;;;8.85;7.57;;;;;;;;;;5040123;28;20437;-79
2022/07/09 04:03:58;;;;;;;10.80;8.50;;;;;;;;;;5019520;28;20516;-76
2022/07/09 04:06:24;;;;;;;9.30;8.60;;;;;;;;;;5038230;28;20155;-76
2022/07/09 04:08:49;;;;;;;9.57;8.77;;;;;;;;;;5040756;28;20128;-75
2022/07/09 04:11:15;;;;;;;10.60;9.70;;;;;;;;;;5041530;28;20025;-76
2022/07/09 04:13:40;;;;;;;9.70;8.90;;;;;;;;;;5044420;28;20019;-79
2022/07/09 04:16:06;;;;;;;10.88;9.77;;;;;;;;;;5044939;28;20063;-74
2022/07/09 04:18:31;;;;;;;10.15;9.35;;;;;;;;;;5044866;28;20368;-75
2022/07/09 04:20:57;;;;;;;9.55;8.75;;;;;;;;;;5044935;28;20355;-77
2022/07/09 04:23:23;;;;;;;10.43;9.25;;;;;;;;;;5044317;28;20040;-76
2022/07/09 04:25:50;;;;;;;9.80;9.05;;;;;;;;;;5044464;28;20072;-74
2022/07/09 04:28:16;;;;;;;9.48;8.77;;;;;;;;;;5044302;28;20036;-76
2022/07/09 04:30:41;;;;;;;8.70;8.00;;;;;;;;;;5034607;28;20333;-75
2022/07/09 04:33:06;;;;;;;9.10;8.30;;;;;;;;;;5042885;28;20029;-77
2022/07/09 04:35:32;;;;;;;9.65;8.35;;;;;;;;;;5043216;28;20120;-74
2022/07/09 04:37:57;;;;;;;9.57;8.10;;;;;;;;;;5044595;28;20094;-75
2022/07/09 04:40:22;;;;;;;9.15;8.25;;;;;;;;;;5042685;28;20039;-79
2022/07/09 04:42:48;;;;;;;8.57;7.78;;;;;;;;;;5043409;28;20108;-76
2022/07/09 04:45:13;;;;;;;8.38;7.63;;;;;;;;;;5044281;28;20032;-75
2022/07/09 04:47:38;;;;;;;8.50;7.65;;;;;;;;;;5043721;28;20359;-75
2022/07/09 04:50:04;;;;;;;9.13;7.40;;;;;;;;;;5032054;28;20071;-72
2022/07/09 04:52:29;;;;;;;7.35;6.75;;;;;;;;;;5028485;28;20094;-72
2022/07/09 04:54:55;;;;;;;6.88;6.28;;;;;;;;;;5030783;28;20356;-74
2022/07/09 04:57:20;;;;;;;6.55;5.97;;;;;;;;;;5029241;28;23412;-77
2022/07/09 04:59:46;;;;;;;6.38;5.78;;;;;;;;;;5028954;28;20024;-75
2022/07/09 05:02:11;;;;;;;5.55;5.15;;;;;;;;;;5028987;28;20029;-74
2022/07/09 05:04:37;;;;;;;5.82;5.32;;;;;;;;;;5030235;28;20103;-76
2022/07/09 05:07:02;;;;;;;6.05;5.55;;;;;;;;;;5030232;28;20029;-75
2022/07/09 05:09:27;;;;;;;7.47;6.82;;;;;;;;;;5031554;28;20782;-75
2022/07/09 05:11:54;;;;;;;6.40;5.80;;;;;;;;;;5029995;28;21152;-75
2022/07/09 05:14:19;;;;;;;6.75;5.72;;;;;;;;;;5028952;28;20044;-74
2022/07/09 05:16:45;;;;;;;7.05;6.45;;;;;;;;;;5034497;28;20483;-74
2022/07/09 05:19:13;;;;;;;6.55;6.05;;;;;;;;;;5028665;28;20043;-74
2022/07/09 05:21:41;;;;;;;6.50;6.00;;;;;;;;;;5028628;28;20051;-73
2022/07/09 05:24:07;;;;;;;6.13;5.57;;;;;;;;;;5028553;28;20040;-74
2022/07/09 05:26:33;;;;;;;7.20;6.60;;;;;;;;;;5031086;28;20028;-74
2022/07/09 05:28:58;;;;;;;6.35;5.85;;;;;;;;;;5040810;28;20033;-77
2022/07/09 05:31:24;;;;;;;6.78;6.00;;;;;;;;;;5042679;28;20024;-75
2022/07/09 05:33:49;;;;;;;6.50;6.00;;;;;;;;;;5030493;28;20129;-77
2022/07/09 05:36:14;;;;;;;6.97;6.38;;;;;;;;;;5029141;28;20056;-76
2022/07/09 05:38:40;;;;;;;6.60;6.05;;;;;;;;;;5029577;28;20437;-76
2022/07/09 05:41:07;;;;;;;6.70;6.00;;;;;;;;;;5030120;28;20317;-75
2022/07/09 05:43:32;;;;;;;6.75;6.15;;;;;;;;;;5029029;28;20108;-75
2022/07/09 05:45:57;;;;;;;6.05;5.55;;;;;;;;;;5030576;28;20103;-76
2022/07/09 05:48:23;;;;;;;6.32;5.75;;;;;;;;;;5021944;28;20124;-75
2022/07/09 05:50:48;;;;;;;5.18;4.72;;;;;;;;;;5034682;28;20021;-76
2022/07/09 05:53:13;;;;;;;5.45;4.95;;;;;;;;;;5037363;28;20124;-77
2022/07/09 05:55:39;;;;;;;6.10;5.47;;;;;;;;;;5036582;28;20033;-76
2022/07/09 05:58:05;;;;;;;5.90;5.38;;;;;;;;;;5039733;28;20025;-80
2022/07/09 06:00:30;;;;;;;7.93;7.22;;;;;;;;;;5034768;28;20115;-79
2022/07/09 06:02:55;;;;;;;7.28;6.63;;;;;;;;;;5032891;28;20100;-80
2022/07/09 06:05:21;;;;;;;8.02;7.32;;;;;;;;;;5037128;28;20055;-79
2022/07/09 06:07:46;;;;;;;8.48;7.68;;;;;;;;;;5042763;28;20047;-79
2022/07/09 06:10:14;;;;;;;8.68;7.97;;;;;;;;;;5036713;28;20115;-81
2022/07/09 06:12:40;;;;;;;8.70;8.00;;;;;;;;;;5040667;28;20309;-80
2022/07/09 06:15:06;;;;;;;7.93;7.28;;;;;;;;;;5040504;28;20670;-78
2022/07/09 06:17:31;;;;;;;7.45;6.75;;;;;;;;;;5041670;28;20036;-75
2022/07/09 06:19:56;;;;;;;6.95;6.43;;;;;;;;;;5042164;28;20335;-74
2022/07/09 06:22:22;;;;;;;7.75;7.05;;;;;;;;;;5029716;28;20025;-75
2022/07/09 06:24:47;;;;;;;6.30;5.80;;;;;;;;;;5033429;28;20021;-75
2022/07/09 06:27:12;;;;;;;5.50;5.10;;;;;;;;;;5034880;28;20040;-74
2022/07/09 06:29:38;;;;;;;6.10;5.60;;;;;;;;;;5041233;28;20535;-74
2022/07/09 06:32:03;;;;;;;5.60;5.10;;;;;;;;;;5040097;28;20060;-73
2022/07/09 06:34:29;;;;;;;6.07;5.47;;;;;;;;;;5029435;28;20078;-76
2022/07/09 06:36:54;;;;;;;7.47;5.95;;;;;;;;;;5036295;28;20028;-74
2022/07/09 06:42:05;;;;;;;6.57;5.18;;;;;;;;;;5032314;28;20056;-75
2022/07/09 06:44:30;;;;;;;6.00;5.40;;;;;;;;;;5042186;28;20023;-73
2022/07/09 06:46:55;;;;;;;5.38;5.03;;;;;;;;;;5035361;28;20371;-74
2022/07/09 06:49:21;;;;;;;4.45;4.15;;;;;;;;;;5041755;28;20033;-72
2022/07/09 06:51:46;;;;;;;5.18;4.78;;;;;;;;;;5043098;28;20053;-73
2022/07/09 06:54:11;;;;;;;5.65;5.22;;;;;;;;;;5043556;28;20028;-73
2022/07/09 06:56:37;;;;;;;5.47;5.07;;;;;;;;;;5041524;28;20027;-73
2022/07/09 06:59:02;;;;;;;4.60;4.20;;;;;;;;;;5044762;28;20448;-73
2022/07/09 07:01:28;;;;;;;5.10;4.05;;;;;;;;;;5043330;28;20032;-76
2022/07/09 07:03:53;;;;;;;4.30;3.97;;;;;;;;;;5045275;28;20802;-75
2022/07/09 07:06:18;;;;;;;6.22;3.75;;;;;;;;;;5038637;28;20025;-76
2022/07/09 07:08:44;;;;;;;3.80;3.50;;;;;;;;;;5035280;28;20041;-77
2022/07/09 07:11:09;;;;;;;5.07;3.72;;;;;;;;;;5035208;28;20112;-78
2022/07/09 07:13:34;;;;;;;4.07;3.63;;;;;;;;;;5041987;28;20082;-77
2022/07/09 07:16:00;;;;;;;4.10;3.80;;;;;;;;;;5040021;28;20135;-79
2022/07/09 07:18:25;;;;;;;3.83;3.53;;;;;;;;;;5041583;28;20044;-78
2022/07/09 07:20:50;;;;;;;3.88;3.58;;;;;;;;;;5034737;28;20434;-77
2022/07/09 07:23:16;;;;;;;3.92;3.63;;;;;;;;;;5029650;28;20365;-78
2022/07/09 07:25:41;;;;;;;3.50;3.30;;;;;;;;;;5039088;28;20090;-77
2022/07/09 07:28:07;;;;;;;3.80;3.45;;;;;;;;;;5028486;28;20037;-78
2022/07/09 07:30:32;;;;;;;4.20;3.90;;;;;;;;;;5041484;28;20065;-80
2022/07/09 07:33:01;;;;;;;4.25;3.85;;;;;;;;;;5033732;28;20039;-79
2022/07/09 07:35:26;;;;;;;4.40;4.00;;;;;;;;;;5034586;28;20126;-79
2022/07/09 07:37:51;;;;;;;4.00;3.70;;;;;;;;;;5040808;28;20336;-79
2022/07/09 07:40:17;;;;;;;4.78;3.83;;;;;;;;;;5040968;28;20111;-79
2022/07/09 07:42:42;;;;;;;3.83;3.63;;;;;;;;;;5038019;28;20068;-79
2022/07/09 07:45:08;;;;;;;4.72;4.25;;;;;;;;;;5038685;28;20984;-79
2022/07/09 07:47:33;;;;;;;4.07;3.78;;;;;;;;;;5038558;28;20103;-78
2022/07/09 07:49:59;;;;;;;3.47;3.28;;;;;;;;;;5039831;28;20064;-80
2022/07/09 07:52:25;;;;;;;3.60;3.35;;;;;;;;;;5039371;28;20123;-80
2022/07/09 07:54:50;;;;;;;3.58;3.25;;;;;;;;;;5041338;28;20122;-80
2022/07/09 07:57:16;;;;;;;3.33;3.13;;;;;;;;;;5039798;28;20028;-79
2022/07/09 07:59:41;;;;;;;3.70;3.40;;;;;;;;;;5039912;28;20458;-79
2022/07/09 08:02:07;;;;;;;3.97;3.63;;;;;;;;;;5035769;28;20028;-82
2022/07/09 08:04:32;;;;;;;4.47;3.85;;;;;;;;;;5041932;28;20021;-79
2022/07/09 08:06:58;;;;;;;4.68;4.22;;;;;;;;;;5023622;28;20056;-80
2022/07/09 08:09:23;;;;;;;4.97;4.53;;;;;;;;;;5040650;28;20041;-79
2022/07/09 08:11:48;;;;;;;4.18;3.78;;;;;;;;;;5040957;28;20031;-80
2022/07/09 08:14:14;;;;;;;4.63;3.58;;;;;;;;;;5040724;28;20017;-79
2022/07/09 08:16:39;;;;;;;3.83;3.53;;;;;;;;;;5038004;28;20021;-78
2022/07/09 08:19:04;;;;;;;3.72;3.42;;;;;;;;;;5025515;28;20033;-78
2022/07/09 08:21:30;;;;;;;3.20;3.00;;;;;;;;;;5028542;28;20384;-77
2022/07/09 08:23:55;;;;;;;3.55;3.25;;;;;;;;;;5035181;28;20188;-78
2022/07/09 08:26:22;;;;;;;3.10;2.90;;;;;;;;;;5038784;28;20084;-76
2022/07/09 08:28:48;;;;;;;3.28;3.00;;;;;;;;;;5038898;28;20039;-75
2022/07/09 08:31:14;;;;;;;3.47;3.17;;;;;;;;;;5039894;28;20020;-77
2022/07/09 08:33:39;;;;;;;3.40;3.20;;;;;;;;;;5033895;28;20353;-76
2022/07/09 08:36:05;;;;;;;4.15;3.75;;;;;;;;;;5034654;28;20025;-75
2022/07/09 08:38:31;;;;;;;3.63;3.25;;;;;;;;;;5039671;28;20060;-75
2022/07/09 08:40:58;;;;;;;4.65;4.25;;;;;;;;;;5038217;28;20124;-75
2022/07/09 08:43:23;;;;;;;4.25;3.95;;;;;;;;;;5038057;28;20132;-77
2022/07/09 08:45:50;;;;;;;4.35;3.95;;;;;;;;;;5038284;28;20099;-75
2022/07/09 08:48:16;;;;;;;4.82;4.38;;;;;;;;;;5033115;28;20079;-74
2022/07/09 08:50:41;;;;;;;4.50;4.20;;;;;;;;;;5033971;28;20044;-74
2022/07/09 08:53:07;;;;;;;3.78;3.47;;;;;;;;;;5038203;28;21163;-74
2022/07/09 08:55:33;;;;;;;3.67;3.38;;;;;;;;;;5039262;28;20340;-74
2022/07/09 08:57:58;;;;;;;4.22;3.83;;;;;;;;;;5040959;28;20606;-74
2022/07/09 09:00:23;;;;;;;4.13;3.83;;;;;;;;;;5040466;28;20079;-75
2022/07/09 09:02:49;;;;;;;4.63;4.28;;;;;;;;;;5016901;28;20035;-74
2022/07/09 09:05:15;;;;;;;4.00;3.70;;;;;;;;;;5029939;28;20037;-75
2022/07/09 09:07:41;;;;;;;4.55;4.15;;;;;;;;;;5028240;28;20037;-76
2022/07/09 09:10:06;;;;;;;4.43;4.13;;;;;;;;;;5030663;28;20103;-73
2022/07/09 09:12:32;;;;;;;6.85;4.07;;;;;;;;;;5029031;28;20029;-76
2022/07/09 09:14:57;;;;;;;5.65;4.68;;;;;;;;;;5030976;28;20028;-76
2022/07/09 09:17:22;;;;;;;4.95;4.32;;;;;;;;;;5022409;28;20036;-73
2022/07/09 09:19:48;;;;;;;4.07;3.67;;;;;;;;;;5029872;28;20500;-73
2022/07/09 09:22:17;;;;;;;4.22;3.90;;;;;;;;;;5028782;28;20048;-76
2022/07/09 09:24:42;;;;;;;4.57;4.25;;;;;;;;;;5029927;28;20456;-73
2022/07/09 09:27:08;;;;;;;4.65;4.15;;;;;;;;;;5034121;28;20081;-73
2022/07/09 09:29:39;;;;;;;4.75;4.35;;;;;;;;;;5033971;28;20155;-76
2022/07/09 09:32:10;;;;;;;4.85;4.55;;;;;;;;;;5038692;28;20029;-76
2022/07/09 09:34:36;;;;;;;4.68;4.30;;;;;;;;;;5031854;28;20033;-76
2022/07/09 09:37:01;;;;;;;5.35;4.80;;;;;;;;;;5031753;28;20077;-76
2022/07/09 09:39:28;;;;;;;4.65;4.35;;;;;;;;;;5033411;28;20033;-74
2022/07/09 09:42:00;;;;;;;5.53;4.85;;;;;;;;;;5034676;28;22811;-76
2022/07/09 09:44:28;;;;;;;5.22;4.82;;;;;;;;;;5035883;28;20013;-72
2022/07/09 09:46:54;;;;;;;5.75;5.25;;;;;;;;;;5029430;28;20112;-73
2022/07/09 09:49:19;;;;;;;5.80;5.30;;;;;;;;;;5031561;28;20440;-72
2022/07/09 09:52:04;;;;;;;6.03;5.53;;;;;;;;;;5037182;28;20115;-73
2022/07/09 09:54:31;;;;;;;5.75;5.25;;;;;;;;;;5030748;28;20035;-74
2022/07/09 09:56:58;;;;;;;5.47;4.97;;;;;;;;;;5034481;28;20025;-75
2022/07/09 09:59:23;;;;;;;5.82;5.25;;;;;;;;;;5032749;28;20107;-73
2022/07/09 10:01:49;;;;;;;5.95;5.45;;;;;;;;;;5032514;28;20105;-72
2022/07/09 10:04:18;;;;;;;6.53;5.88;;;;;;;;;;5028444;28;20026;-76
2022/07/09 10:06:44;;;;;;;5.50;5.03;;;;;;;;;;5020864;28;20029;-77
2022/07/09 10:09:13;;;;;;;5.35;4.95;;;;;;;;;;5033616;28;20061;-76
2022/07/09 10:11:39;;;;;;;5.47;4.93;;;;;;;;;;5039625;28;20112;-68
2022/07/09 10:14:04;;;;;;;5.35;4.95;;;;;;;;;;5033958;28;20039;-67
2022/07/09 10:16:37;;;;;;;8.23;6.82;;;;;;;;;;5029553;28;20444;-69
2022/07/09 10:19:03;;;;;;;8.70;7.80;;;;;;;;;;5029455;28;20043;-65
2022/07/09 10:21:41;;;;;;;8.70;7.85;;;;;;;;;;5036964;28;20074;-68
2022/07/09 10:24:08;;;;;;;8.60;6.22;;;;;;;;;;5040821;28;20040;-70
2022/07/09 10:26:44;;;;;;;5.07;4.68;;;;;;;;;;5039344;28;20021;-69
2022/07/09 10:29:20;;;;;;;5.13;4.70;;;;;;;;;;5038705;28;20048;-67
2022/07/09 10:31:46;;;;;;;5.90;4.30;;;;;;;;;;5035175;28;20460;-68
2022/07/09 10:34:16;;;;;;;4.80;4.40;;;;;;;;;;5027924;28;20590;-66
2022/07/09 10:36:55;;;;;;;5.20;4.80;;;;;;;;;;5028625;28;20766;-67
2022/07/09 10:39:20;;;;;;;;;;;;;;;;;;5026366;28;20456;-70
2022/07/09 10:41:45;;;;;;;5.23;4.83;;;;;;;;;;5039205;28;19913;-69
2022/07/09 10:44:11;;;;;;;5.97;5.38;;;;;;;;;;5030135;28;20170;-68
2022/07/09 10:46:37;;;;;;;5.32;4.82;;;;;;;;;;5028085;28;20029;-70
2022/07/09 10:49:02;;;;;;;6.25;5.75;;;;;;;;;;5027039;28;20048;-67
2022/07/09 10:51:27;;;;;;;7.07;6.22;;;;;;;;;;5022174;28;20028;-67
2022/07/09 10:53:53;;;;;;;6.72;6.22;;;;;;;;;;5029226;28;20036;-67
2022/07/09 10:56:19;;;;;;;6.75;6.25;;;;;;;;;;5028099;28;20442;-68
2022/07/09 10:58:48;;;;;;;6.60;6.15;;;;;;;;;;5038796;28;20428;-67
2022/07/09 11:01:18;;;;;;;6.43;6.03;;;;;;;;;;5026131;28;20036;-67
2022/07/09 11:03:48;;;;;;;6.60;6.10;;;;;;;;;;5028677;28;21225;-68
2022/07/09 11:06:13;;;;;;;;;;;;;;;;;;5026856;28;20520;-69
2022/07/09 11:08:38;;;;;;;7.83;7.13;;;;;;;;;;5027533;28;20027;-68
2022/07/09 11:11:04;;;;;;;7.60;6.90;;;;;;;;;;5030979;28;20028;-67
2022/07/09 11:13:29;;;;;;;7.57;6.97;;;;;;;;;;5040428;28;20040;-67
2022/07/09 11:16:00;;;;;;;7.97;7.07;;;;;;;;;;5040259;28;20009;-67
2022/07/09 11:18:27;;;;;;;8.45;7.65;;;;;;;;;;5033278;28;20195;-67
2022/07/09 11:20:52;;;;;;;9.77;8.93;;;;;;;;;;5032305;28;20778;-72
2022/07/09 11:23:17;;;;;;;6.95;6.35;;;;;;;;;;5040101;28;20040;-68
2022/07/09 11:25:44;;;;;;;5.68;5.28;;;;;;;;;;5028034;28;20025;-70
2022/07/09 11:28:18;;;;;;;6.85;4.50;;;;;;;;;;5024477;28;20028;-68
2022/07/09 11:30:43;;;;;;;4.75;4.40;;;;;;;;;;5026045;28;20445;-68
2022/07/09 11:33:11;;;;;;;4.20;3.90;;;;;;;;;;5032871;28;20037;-66
2022/07/09 11:35:37;;;;;;;4.20;3.88;;;;;;;;;;5031545;28;24451;-69
2022/07/09 11:38:03;;;;;;;4.43;4.05;;;;;;;;;;5034797;28;20099;-68
2022/07/09 11:40:29;;;;;;;5.88;4.55;;;;;;;;;;5030477;28;20344;-69
2022/07/09 11:42:54;;;;;;;5.88;5.28;;;;;;;;;;5039591;28;20029;-71
2022/07/09 11:45:24;;;;;;;4.85;4.45;;;;;;;;;;5038279;28;20040;-73
2022/07/09 11:47:50;;;;;;;4.45;4.10;;;;;;;;;;5039266;28;20128;-68
2022/07/09 11:50:18;;;;;;;4.40;4.10;;;;;;;;;;5036688;28;20100;-70
2022/07/09 11:52:50;;;;;;;6.13;4.63;;;;;;;;;;5026891;28;20484;-69
2022/07/09 11:55:17;;;;;;;5.32;4.82;;;;;;;;;;5029020;28;20404;-71
2022/07/09 11:58:02;;;;;;;6.28;5.05;;;;;;;;;;5027578;28;20068;-70
2022/07/09 12:00:29;;;;;;;4.93;4.53;;;;;;;;;;5026498;28;20470;-67
2022/07/09 12:02:55;;;;;;;4.63;4.28;;;;;;;;;;5028551;28;20021;-72
2022/07/09 12:05:33;;;;;;;4.40;4.10;;;;;;;;;;5028178;28;20028;-71
2022/07/09 12:08:01;;;;;;;5.68;4.88;;;;;;;;;;5028580;28;20029;-67
2022/07/09 12:10:28;;;;;;;5.45;4.95;;;;;;;;;;5028635;28;20021;-68
2022/07/09 12:12:53;;;;;;;5.75;5.35;;;;;;;;;;5039184;28;20040;-71
2022/07/09 12:15:19;;;;;;;5.80;5.40;;;;;;;;;;5027611;28;20025;-68
2022/07/09 12:17:44;;;;;;;6.60;6.00;;;;;;;;;;5027288;28;20013;-67
2022/07/09 12:20:10;;;;;;;6.60;6.00;;;;;;;;;;5027310;28;20024;-67
2022/07/09 12:22:35;;;;;;;7.55;6.88;;;;;;;;;;5027843;28;20035;-68
2022/07/09 12:25:01;;;;;;;8.52;6.60;;;;;;;;;;5026417;28;20037;-68
2022/07/09 12:27:26;;;;;;;7.03;6.50;;;;;;;;;;5025228;28;20032;-69
2022/07/09 12:29:51;;;;;;;7.47;6.78;;;;;;;;;;5025908;28;20128;-67
2022/07/09 12:32:17;;;;;;;7.53;6.93;;;;;;;;;;5027854;28;20060;-68
2022/07/09 12:34:42;;;;;;;8.07;7.47;;;;;;;;;;5029485;28;20032;-69
2022/07/09 12:37:07;;;;;;;8.43;7.82;;;;;;;;;;5042186;28;20036;-68
2022/07/09 12:39:33;;;;;;;8.18;7.38;;;;;;;;;;5034657;28;20021;-69
2022/07/09 12:41:58;;;;;;;8.88;8.07;;;;;;;;;;5031335;28;20414;-66
2022/07/09 12:44:24;;;;;;;8.05;7.45;;;;;;;;;;5024535;28;20108;-69
2022/07/09 12:46:50;;;;;;;8.32;7.63;;;;;;;;;;5029757;28;20033;-67
2022/07/09 12:49:15;;;;;;;8.82;8.20;;;;;;;;;;5032187;28;20033;-69
2022/07/09 12:51:41;;;;;;;8.95;8.25;;;;;;;;;;5032940;28;20763;-71
2022/07/09 12:54:06;;;;;;;9.95;9.15;;;;;;;;;;5034251;28;20479;-72
2022/07/09 12:56:31;;;;;;;9.88;9.10;;;;;;;;;;5032328;28;20151;-68
2022/07/09 12:58:56;;;;;;;10.85;10.05;;;;;;;;;;5031062;28;20036;-69
2022/07/09 13:01:22;;;;;;;10.52;9.70;;;;;;;;;;5031015;28;20043;-68
2022/07/09 13:03:47;;;;;;;10.55;9.70;;;;;;;;;;5031668;28;20021;-69
2022/07/09 13:06:31;;;;;;;11.45;10.55;;;;;;;;;;5031122;28;20392;-68
2022/07/09 13:08:57;;;;;;;10.43;9.65;;;;;;;;;;5030965;28;20036;-68
2022/07/09 13:11:22;;;;;;;10.82;9.13;;;;;;;;;;5034060;28;20051;-72
2022/07/09 13:13:47;;;;;;;10.43;9.55;;;;;;;;;;5029266;28;20060;-68
2022/07/09 13:16:13;;;;;;;10.38;9.48;;;;;;;;;;5030694;28;20052;-70
2022/07/09 13:18:38;;;;;;;10.70;9.80;;;;;;;;;;5027383;28;20032;-71
2022/07/09 13:21:04;;;;;;;10.32;9.43;;;;;;;;;;5030315;28;20021;-69
2022/07/09 13:23:30;;;;;;;10.45;9.57;;;;;;;;;;5029582;28;20025;-70
2022/07/09 13:25:55;;;;;;;11.13;10.02;;;;;;;;;;5029832;28;20192;-70
2022/07/09 13:28:20;;;;;;;9.75;8.95;;;;;;;;;;5028364;28;20511;-72
2022/07/09 13:30:46;;;;;;;9.48;8.68;;;;;;;;;;5030086;28;20021;-68
2022/07/09 13:33:11;;;;;;;10.07;9.25;;;;;;;;;;5028543;28;20028;-71
2022/07/09 13:35:36;;;;;;;12.10;10.98;;;;;;;;;;5030097;28;20040;-69
2022/07/09 13:38:02;;;;;;;10.85;9.95;;;;;;;;;;5027620;28;20047;-73
2022/07/09 13:40:28;;;;;;;9.98;9.07;;;;;;;;;;5028954;28;20075;-73
2022/07/09 13:42:53;;;;;;;10.35;9.55;;;;;;;;;;5029533;28;20025;-71
2022/07/09 13:45:18;;;;;;;10.85;9.90;;;;;;;;;;5030018;28;20021;-68
2022/07/09 13:47:44;;;;;;;11.18;10.20;;;;;;;;;;5029969;28;20028;-68
2022/07/09 13:50:10;;;;;;;14.85;12.55;;;;;;;;;;5029281;28;20094;-69
2022/07/09 13:52:36;;;;;;;20.35;18.23;;;;;;;;;;5029343;28;20049;-69
2022/07/09 13:55:01;;;;;;;11.07;10.18;;;;;;;;;;5030023;28;20025;-71
2022/07/09 13:57:26;;;;;;;16.23;14.52;;;;;;;;;;5021614;28;20740;-70
2022/07/09 13:59:52;;;;;;;23.58;21.27;;;;;;;;;;5029787;28;20060;-71
2022/07/09 14:02:17;;;;;;;13.73;12.52;;;;;;;;;;5029474;28;20437;-71
2022/07/09 14:04:42;;;;;;;21.23;19.02;;;;;;;;;;5029200;28;20529;-67
2022/07/09 14:07:08;;;;;;;16.42;14.95;;;;;;;;;;5022691;28;20519;-68
2022/07/09 14:09:33;;;;;;;20.85;16.27;;;;;;;;;;5028432;28;20113;-67
2022/07/09 14:11:59;;;;;;;14.57;13.27;;;;;;;;;;5026912;28;20025;-68
2022/07/09 14:14:24;;;;;;;13.23;12.13;;;;;;;;;;5029267;28;20100;-69
2022/07/09 14:16:50;;;;;;;12.80;11.55;;;;;;;;;;5028247;28;20052;-71
2022/07/09 14:19:15;;;;;;;14.38;13.05;;;;;;;;;;5029629;28;20102;-71
2022/07/09 14:21:41;;;;;;;11.98;10.98;;;;;;;;;;5037024;28;20021;-67
2022/07/09 14:24:06;;;;;;;10.40;9.50;;;;;;;;;;5054866;28;20109;-68
2022/07/09 14:26:31;;;;;;;11.63;10.07;;;;;;;;;;5054375;28;20310;-69
2022/07/09 14:28:57;;;;;;;10.60;9.70;;;;;;;;;;5054468;28;20025;-69
2022/07/09 14:31:22;;;;;;;11.20;10.10;;;;;;;;;;5046560;28;20029;-68
2022/07/09 14:33:48;;;;;;;11.13;10.05;;;;;;;;;;5034471;28;20068;-68
2022/07/09 14:36:13;;;;;;;11.73;10.73;;;;;;;;;;5037188;28;20094;-67